createdAt,value
2016-08-21T00:00:18.450Z,0
2016-08-21T00:01:18.242Z,0
2016-08-21T00:02:18.219Z,0
2016-08-21T00:03:18.943Z,0
2016-08-21T00:04:18.224Z,0
2016-08-21T00:05:19.207Z,0
2016-08-21T00:06:18.250Z,0
2016-08-21T00:07:18.220Z,0
2016-08-21T00:08:18.244Z,0
2016-08-21T00:09:18.977Z,0
2016-08-21T00:10:18.467Z,0
2016-08-21T00:11:18.493Z,0
2016-08-21T00:12:18.220Z,0
2016-08-21T00:13:18.237Z,0
2016-08-21T00:14:23.074Z,0
2016-08-21T00:15:19.938Z,0
2016-08-21T00:16:18.282Z,0
2016-08-21T00:17:18.246Z,0
2016-08-21T00:18:19.752Z,0
2016-08-21T00:19:19.025Z,0
2016-08-21T00:20:19.210Z,0
2016-08-21T00:21:18.250Z,0
2016-08-21T00:22:18.256Z,0
2016-08-21T00:23:18.256Z,0
2016-08-21T00:24:18.258Z,0
2016-08-21T00:25:19.271Z,0
2016-08-21T00:26:18.255Z,0
2016-08-21T00:27:18.251Z,0
2016-08-21T00:28:18.265Z,0
2016-08-21T00:29:18.258Z,0
2016-08-21T00:30:18.433Z,0
2016-08-21T00:31:18.257Z,0
2016-08-21T00:32:18.245Z,0
2016-08-21T00:33:18.249Z,0
2016-08-21T00:34:18.246Z,0
2016-08-21T00:35:19.282Z,0
2016-08-21T00:36:18.261Z,0
2016-08-21T00:37:18.254Z,0
2016-08-21T00:38:18.249Z,0
2016-08-21T00:39:18.260Z,0
2016-08-21T00:40:19.193Z,0
2016-08-21T00:41:18.249Z,0
2016-08-21T00:42:18.257Z,0
2016-08-21T00:43:18.265Z,0
2016-08-21T00:44:18.263Z,0
2016-08-21T00:45:19.193Z,0
2016-08-21T00:46:18.295Z,0
2016-08-21T00:47:18.960Z,0
2016-08-21T00:48:18.262Z,0
2016-08-21T00:49:18.262Z,0
2016-08-21T00:50:19.240Z,0
2016-08-21T00:51:18.264Z,0
2016-08-21T00:52:18.252Z,0
2016-08-21T00:53:18.266Z,0
2016-08-21T00:54:18.257Z,0
2016-08-21T00:55:19.200Z,0
2016-08-21T00:56:18.302Z,0
2016-08-21T00:57:18.292Z,0
2016-08-21T00:58:18.273Z,0
2016-08-21T00:59:18.325Z,0
2016-08-21T01:00:19.318Z,0
2016-08-21T01:01:18.268Z,0
2016-08-21T01:02:18.307Z,0
2016-08-21T01:03:18.273Z,0
2016-08-21T01:04:18.274Z,0
2016-08-21T01:05:18.520Z,0
2016-08-21T01:06:18.284Z,0
2016-08-21T01:07:18.307Z,0
2016-08-21T01:08:18.273Z,0
2016-08-21T01:09:18.309Z,0
2016-08-21T01:10:19.258Z,0
2016-08-21T01:11:18.279Z,0
2016-08-21T01:12:18.289Z,0
2016-08-21T01:13:18.284Z,0
2016-08-21T01:14:19.004Z,0
2016-08-21T01:15:19.301Z,0
2016-08-21T01:16:18.315Z,0
2016-08-21T01:17:18.313Z,0
2016-08-21T01:18:18.304Z,0
2016-08-21T01:19:18.316Z,0
2016-08-21T01:20:19.279Z,0
2016-08-21T01:21:18.305Z,0
2016-08-21T01:22:18.998Z,0
2016-08-21T01:23:18.317Z,0
2016-08-21T01:24:18.300Z,0
2016-08-21T01:25:18.552Z,0
2016-08-21T01:26:18.317Z,0
2016-08-21T01:27:18.299Z,0
2016-08-21T01:28:18.318Z,0
2016-08-21T01:29:18.317Z,0
2016-08-21T01:30:19.191Z,0
2016-08-21T01:31:18.312Z,0
2016-08-21T01:32:18.304Z,0
2016-08-21T01:33:18.299Z,0
2016-08-21T01:34:18.320Z,0
2016-08-21T01:35:20.008Z,0
2016-08-21T01:36:18.302Z,0
2016-08-21T01:37:18.324Z,0
2016-08-21T01:38:18.320Z,0
2016-08-21T01:39:18.326Z,0
2016-08-21T01:40:18.542Z,0
2016-08-21T01:41:18.307Z,0
2016-08-21T01:42:18.320Z,0
2016-08-21T01:43:18.304Z,0
2016-08-21T01:44:18.316Z,0
2016-08-21T01:45:19.244Z,0
2016-08-21T01:46:18.327Z,0
2016-08-21T01:47:18.328Z,0
2016-08-21T01:48:18.334Z,0
2016-08-21T01:49:18.330Z,0
2016-08-21T01:50:19.245Z,0
2016-08-21T01:51:18.334Z,0
2016-08-21T01:52:18.340Z,0
2016-08-21T01:53:18.330Z,0
2016-08-21T01:54:18.328Z,0
2016-08-21T01:55:18.549Z,0
2016-08-21T01:56:18.336Z,0
2016-08-21T01:57:18.329Z,0
2016-08-21T01:58:19.036Z,0
2016-08-21T01:59:18.523Z,0
2016-08-21T02:00:18.540Z,0
2016-08-21T02:01:18.333Z,0
2016-08-21T02:02:18.349Z,0
2016-08-21T02:03:18.330Z,0
2016-08-21T02:04:18.376Z,0
2016-08-21T02:05:19.343Z,0
2016-08-21T02:06:18.344Z,0
2016-08-21T02:07:18.337Z,0
2016-08-21T02:08:19.036Z,0
2016-08-21T02:09:18.343Z,0
2016-08-21T02:10:19.254Z,0
2016-08-21T02:11:18.341Z,0
2016-08-21T02:12:18.325Z,0
2016-08-21T02:13:18.339Z,0
2016-08-21T02:14:18.341Z,0
2016-08-21T02:15:19.355Z,0
2016-08-21T02:16:18.327Z,0
2016-08-21T02:17:18.342Z,0
2016-08-21T02:18:18.326Z,0
2016-08-21T02:19:18.318Z,0
2016-08-21T02:20:18.565Z,0
2016-08-21T02:21:18.348Z,0
2016-08-21T02:22:18.321Z,0
2016-08-21T02:23:18.330Z,0
2016-08-21T02:24:18.331Z,0
2016-08-21T02:25:19.339Z,0
2016-08-21T02:26:18.331Z,0
2016-08-21T02:27:18.325Z,0
2016-08-21T02:28:18.330Z,0
2016-08-21T02:29:18.325Z,0
2016-08-21T02:30:19.236Z,0
2016-08-21T02:31:18.338Z,0
2016-08-21T02:32:19.036Z,0
2016-08-21T02:33:18.330Z,0
2016-08-21T02:34:18.347Z,0
2016-08-21T02:35:19.983Z,0
2016-08-21T02:36:18.336Z,0
2016-08-21T02:37:18.338Z,0
2016-08-21T02:38:18.341Z,0
2016-08-21T02:39:18.340Z,0
2016-08-21T02:40:18.585Z,0
2016-08-21T02:41:18.336Z,0
2016-08-21T02:42:18.330Z,0
2016-08-21T02:43:19.043Z,0
2016-08-21T02:44:18.334Z,0
2016-08-21T02:45:19.288Z,0
2016-08-21T02:46:18.338Z,0
2016-08-21T02:47:18.341Z,0
2016-08-21T02:48:18.341Z,0
2016-08-21T02:49:18.339Z,0
2016-08-21T02:50:19.310Z,0
2016-08-21T02:51:18.338Z,0
2016-08-21T02:52:18.343Z,0
2016-08-21T02:53:18.367Z,0
2016-08-21T02:54:18.339Z,0
2016-08-21T02:55:19.295Z,0
2016-08-21T02:56:18.343Z,0
2016-08-21T02:57:18.344Z,0
2016-08-21T02:58:18.571Z,0
2016-08-21T02:59:18.407Z,0
2016-08-21T03:00:18.561Z,0
2016-08-21T03:01:18.343Z,0
2016-08-21T03:02:18.351Z,0
2016-08-21T03:03:18.342Z,0
2016-08-21T03:04:18.356Z,0
2016-08-21T03:05:19.301Z,0
2016-08-21T03:06:18.360Z,0
2016-08-21T03:07:18.349Z,0
2016-08-21T03:08:18.382Z,0
2016-08-21T03:09:18.415Z,0
2016-08-21T03:10:19.314Z,0
2016-08-21T03:11:18.354Z,0
2016-08-21T03:12:18.349Z,0
2016-08-21T03:13:18.352Z,0
2016-08-21T03:14:18.358Z,0
2016-08-21T03:15:18.633Z,0
2016-08-21T03:16:18.363Z,0
2016-08-21T03:17:18.356Z,0
2016-08-21T03:18:18.360Z,0
2016-08-21T03:19:18.356Z,0
2016-08-21T03:20:19.313Z,0
2016-08-21T03:21:18.357Z,0
2016-08-21T03:22:18.358Z,0
2016-08-21T03:23:18.367Z,0
2016-08-21T03:24:18.369Z,0
2016-08-21T03:25:20.055Z,0
2016-08-21T03:26:18.365Z,0
2016-08-21T03:27:18.384Z,0
2016-08-21T03:28:18.362Z,0
2016-08-21T03:29:18.366Z,0
2016-08-21T03:30:19.315Z,0
2016-08-21T03:31:18.363Z,0
2016-08-21T03:32:18.369Z,0
2016-08-21T03:33:18.370Z,0
2016-08-21T03:34:18.384Z,0
2016-08-21T03:35:19.351Z,0
2016-08-21T03:36:18.376Z,0
2016-08-21T03:37:19.075Z,0
2016-08-21T03:38:18.369Z,0
2016-08-21T03:39:18.392Z,0
2016-08-21T03:40:19.320Z,0
2016-08-21T03:41:18.372Z,0
2016-08-21T03:42:18.389Z,0
2016-08-21T03:43:18.383Z,0
2016-08-21T03:44:19.081Z,0
2016-08-21T03:45:19.330Z,0
2016-08-21T03:46:18.382Z,0
2016-08-21T03:47:18.378Z,0
2016-08-21T03:48:18.391Z,0
2016-08-21T03:49:18.375Z,0
2016-08-21T03:50:18.586Z,0
2016-08-21T03:51:18.396Z,0
2016-08-21T03:52:18.396Z,0
2016-08-21T03:53:18.397Z,0
2016-08-21T03:54:18.382Z,0
2016-08-21T03:55:20.065Z,0
2016-08-21T03:56:18.385Z,0
2016-08-21T03:57:19.092Z,0
2016-08-21T03:58:19.109Z,0
2016-08-21T03:59:18.446Z,0
2016-08-21T04:00:19.323Z,0
2016-08-21T04:01:18.405Z,0
2016-08-21T04:02:18.388Z,0
2016-08-21T04:03:19.094Z,0
2016-08-21T04:04:18.412Z,0
2016-08-21T04:05:18.644Z,0
2016-08-21T04:06:18.402Z,0
2016-08-21T04:07:18.404Z,0
2016-08-21T04:08:18.388Z,0
2016-08-21T04:09:18.404Z,0
2016-08-21T04:10:19.339Z,0
2016-08-21T04:11:18.404Z,0
2016-08-21T04:12:18.395Z,0
2016-08-21T04:13:18.394Z,0
2016-08-21T04:14:18.397Z,0
2016-08-21T04:15:18.638Z,0
2016-08-21T04:16:18.395Z,0
2016-08-21T04:17:18.391Z,0
2016-08-21T04:18:18.394Z,0
2016-08-21T04:19:18.391Z,0
2016-08-21T04:20:18.651Z,0
2016-08-21T04:21:18.421Z,5
2016-08-21T04:22:18.395Z,5
2016-08-21T04:23:18.403Z,5
2016-08-21T04:24:19.103Z,5
2016-08-21T04:25:19.356Z,5
2016-08-21T04:26:18.391Z,5
2016-08-21T04:27:18.395Z,5
2016-08-21T04:28:18.395Z,5
2016-08-21T04:29:18.399Z,10
2016-08-21T04:30:18.650Z,10
2016-08-21T04:31:18.394Z,10
2016-08-21T04:32:18.399Z,10
2016-08-21T04:33:18.399Z,15
2016-08-21T04:34:18.406Z,15
2016-08-21T04:35:19.135Z,15
2016-08-21T04:36:18.420Z,15
2016-08-21T04:37:18.395Z,20
2016-08-21T04:38:18.405Z,20
2016-08-21T04:39:18.395Z,20
2016-08-21T04:40:19.335Z,20
2016-08-21T04:41:19.132Z,25
2016-08-21T04:42:18.406Z,25
2016-08-21T04:43:18.420Z,25
2016-08-21T04:44:18.403Z,30
2016-08-21T04:45:19.281Z,30
2016-08-21T04:46:18.399Z,30
2016-08-21T04:47:19.111Z,35
2016-08-21T04:48:18.400Z,35
2016-08-21T04:49:18.403Z,40
2016-08-21T04:50:19.355Z,40
2016-08-21T04:51:18.409Z,40
2016-08-21T04:52:19.059Z,45
2016-08-21T04:53:18.414Z,45
2016-08-21T04:54:19.116Z,50
2016-08-21T04:55:19.390Z,55
2016-08-21T04:56:18.410Z,65
2016-08-21T04:57:18.399Z,70
2016-08-21T04:58:18.411Z,80
2016-08-21T04:59:18.472Z,95
2016-08-21T05:00:19.355Z,100
2016-08-21T05:01:18.408Z,100
2016-08-21T05:02:18.405Z,110
2016-08-21T05:03:19.113Z,120
2016-08-21T05:04:18.404Z,120
2016-08-21T05:05:18.636Z,115
2016-08-21T05:06:18.407Z,110
2016-08-21T05:07:18.418Z,130
2016-08-21T05:08:18.414Z,135
2016-08-21T05:09:18.413Z,135
2016-08-21T05:10:19.364Z,145
2016-08-21T05:11:18.414Z,150
2016-08-21T05:12:18.417Z,155
2016-08-21T05:13:18.412Z,155
2016-08-21T05:14:18.419Z,160
2016-08-21T05:15:19.367Z,165
2016-08-21T05:16:18.422Z,170
2016-08-21T05:17:18.427Z,175
2016-08-21T05:18:18.452Z,180
2016-08-21T05:19:18.442Z,185
2016-08-21T05:20:20.159Z,185
2016-08-21T05:21:18.440Z,190
2016-08-21T05:22:18.443Z,180
2016-08-21T05:23:18.442Z,170
2016-08-21T05:24:19.156Z,155
2016-08-21T05:25:20.160Z,145
2016-08-21T05:26:18.451Z,135
2016-08-21T05:27:18.464Z,130
2016-08-21T05:28:18.462Z,130
2016-08-21T05:29:18.475Z,130
2016-08-21T05:30:19.407Z,125
2016-08-21T05:31:18.479Z,125
2016-08-21T05:32:18.482Z,125
2016-08-21T05:33:18.473Z,125
2016-08-21T05:34:18.483Z,120
2016-08-21T05:35:20.171Z,230
2016-08-21T05:36:18.487Z,240
2016-08-21T05:37:18.489Z,205
2016-08-21T05:38:18.499Z,120
2016-08-21T05:39:19.201Z,110
2016-08-21T05:40:19.446Z,125
2016-08-21T05:41:18.529Z,110
2016-08-21T05:42:18.488Z,115
2016-08-21T05:43:18.499Z,100
2016-08-21T05:44:18.494Z,95
2016-08-21T05:45:18.785Z,100
2016-08-21T05:46:18.514Z,110
2016-08-21T05:47:18.513Z,220
2016-08-21T05:48:18.506Z,125
2016-08-21T05:49:18.531Z,130
2016-08-21T05:50:18.846Z,135
2016-08-21T05:51:18.527Z,130
2016-08-21T05:52:18.536Z,135
2016-08-21T05:53:18.528Z,145
2016-08-21T05:54:18.529Z,150
2016-08-21T05:55:19.507Z,235
2016-08-21T05:56:18.531Z,220
2016-08-21T05:57:18.532Z,205
2016-08-21T05:58:19.265Z,135
2016-08-21T05:59:18.594Z,150
2016-08-21T06:00:18.799Z,110
2016-08-21T06:01:18.537Z,105
2016-08-21T06:02:18.546Z,105
2016-08-21T06:03:18.551Z,110
2016-08-21T06:04:18.549Z,110
2016-08-21T06:05:19.513Z,110
2016-08-21T06:06:18.559Z,110
2016-08-21T06:07:18.562Z,115
2016-08-21T06:08:18.555Z,120
2016-08-21T06:09:18.599Z,130
2016-08-21T06:10:19.522Z,135
2016-08-21T06:11:18.603Z,160
2016-08-21T06:12:18.598Z,160
2016-08-21T06:13:18.604Z,160
2016-08-21T06:14:18.591Z,240
2016-08-21T06:15:19.526Z,135
2016-08-21T06:16:18.601Z,160
2016-08-21T06:17:18.598Z,160
2016-08-21T06:18:19.303Z,170
2016-08-21T06:19:18.599Z,175
2016-08-21T06:20:19.626Z,185
2016-08-21T06:21:18.602Z,195
2016-08-21T06:22:18.602Z,220
2016-08-21T06:23:19.306Z,235
2016-08-21T06:24:18.604Z,255
2016-08-21T06:25:19.575Z,265
2016-08-21T06:26:18.614Z,265
2016-08-21T06:27:19.323Z,275
2016-08-21T06:28:18.615Z,285
2016-08-21T06:29:18.635Z,295
2016-08-21T06:30:19.590Z,305
2016-08-21T06:31:18.632Z,310
2016-08-21T06:32:18.660Z,330
2016-08-21T06:33:18.633Z,205
2016-08-21T06:34:18.663Z,155
2016-08-21T06:35:19.578Z,160
2016-08-21T06:36:18.661Z,185
2016-08-21T06:37:18.668Z,210
2016-08-21T06:38:18.664Z,160
2016-08-21T06:39:18.679Z,160
2016-08-21T06:40:19.583Z,170
2016-08-21T06:41:18.676Z,170
2016-08-21T06:42:18.677Z,170
2016-08-21T06:43:18.674Z,170
2016-08-21T06:44:18.680Z,165
2016-08-21T06:45:19.613Z,160
2016-08-21T06:46:18.691Z,150
2016-08-21T06:47:19.402Z,145
2016-08-21T06:48:18.705Z,150
2016-08-21T06:49:18.705Z,155
2016-08-21T06:50:19.691Z,155
2016-08-21T06:51:18.720Z,155
2016-08-21T06:52:18.718Z,155
2016-08-21T06:53:18.721Z,160
2016-08-21T06:54:18.720Z,160
2016-08-21T06:55:21.005Z,155
2016-08-21T06:56:18.727Z,150
2016-08-21T06:57:18.732Z,145
2016-08-21T06:58:18.725Z,150
2016-08-21T06:59:19.492Z,145
2016-08-21T07:00:20.430Z,135
2016-08-21T07:01:18.747Z,135
2016-08-21T07:02:18.742Z,140
2016-08-21T07:03:18.741Z,145
2016-08-21T07:04:18.834Z,145
2016-08-21T07:05:20.395Z,140
2016-08-21T07:06:18.751Z,135
2016-08-21T07:07:18.764Z,130
2016-08-21T07:08:18.765Z,125
2016-08-21T07:09:18.765Z,125
2016-08-21T07:10:19.726Z,125
2016-08-21T07:11:18.768Z,130
2016-08-21T07:12:18.786Z,130
2016-08-21T07:13:18.787Z,130
2016-08-21T07:14:18.784Z,140
2016-08-21T07:15:19.688Z,185
2016-08-21T07:16:18.785Z,180
2016-08-21T07:17:18.784Z,165
2016-08-21T07:18:18.805Z,185
2016-08-21T07:19:18.793Z,210
2016-08-21T07:20:20.513Z,160
2016-08-21T07:21:18.805Z,210
2016-08-21T07:22:18.807Z,205
2016-08-21T07:23:18.810Z,320
2016-08-21T07:24:18.818Z,325
2016-08-21T07:25:20.546Z,320
2016-08-21T07:26:18.809Z,315
2016-08-21T07:27:18.835Z,320
2016-08-21T07:28:18.828Z,250
2016-08-21T07:29:18.827Z,305
2016-08-21T07:30:20.483Z,230
2016-08-21T07:31:18.844Z,235
2016-08-21T07:32:18.838Z,215
2016-08-21T07:33:18.850Z,220
2016-08-21T07:34:18.886Z,215
2016-08-21T07:35:19.822Z,215
2016-08-21T07:36:18.875Z,215
2016-08-21T07:37:18.876Z,220
2016-08-21T07:38:18.888Z,220
2016-08-21T07:39:18.888Z,220
2016-08-21T07:40:19.831Z,220
2016-08-21T07:41:18.886Z,225
2016-08-21T07:42:18.897Z,225
2016-08-21T07:43:18.888Z,235
2016-08-21T07:44:18.895Z,255
2016-08-21T07:45:19.892Z,265
2016-08-21T07:46:18.904Z,280
2016-08-21T07:47:18.908Z,290
2016-08-21T07:48:18.920Z,295
2016-08-21T07:49:18.929Z,295
2016-08-21T07:50:19.188Z,295
2016-08-21T07:51:18.945Z,300
2016-08-21T07:52:18.941Z,300
2016-08-21T07:53:19.025Z,300
2016-08-21T07:54:18.948Z,300
2016-08-21T07:55:20.006Z,295
2016-08-21T07:56:18.952Z,295
2016-08-21T07:57:18.954Z,300
2016-08-21T07:58:18.957Z,290
2016-08-21T07:59:19.021Z,300
2016-08-21T08:00:19.913Z,275
2016-08-21T08:01:18.991Z,310
2016-08-21T08:02:18.996Z,310
2016-08-21T08:03:19.003Z,310
2016-08-21T08:04:18.997Z,295
2016-08-21T08:05:19.960Z,285
2016-08-21T08:06:19.015Z,310
2016-08-21T08:07:19.031Z,310
2016-08-21T08:08:19.739Z,215
2016-08-21T08:09:19.023Z,315
2016-08-21T08:10:19.841Z,215
2016-08-21T08:11:19.045Z,240
2016-08-21T08:12:19.050Z,300
2016-08-21T08:13:19.061Z,300
2016-08-21T08:14:19.777Z,300
2016-08-21T08:15:20.064Z,295
2016-08-21T08:16:19.068Z,290
2016-08-21T08:17:19.091Z,290
2016-08-21T08:18:19.094Z,285
2016-08-21T08:19:19.093Z,285
2016-08-21T08:20:19.995Z,285
2016-08-21T08:21:19.105Z,285
2016-08-21T08:22:19.111Z,280
2016-08-21T08:23:19.114Z,285
2016-08-21T08:24:19.124Z,285
2016-08-21T08:25:19.129Z,295
2016-08-21T08:26:19.143Z,295
2016-08-21T08:27:19.142Z,275
2016-08-21T08:28:19.167Z,215
2016-08-21T08:29:19.876Z,300
2016-08-21T08:30:19.176Z,305
2016-08-21T08:31:19.175Z,310
2016-08-21T08:32:19.318Z,310
2016-08-21T08:33:19.186Z,315
2016-08-21T08:34:19.193Z,320
2016-08-21T08:35:19.936Z,325
2016-08-21T08:36:19.215Z,330
2016-08-21T08:37:19.216Z,330
2016-08-21T08:38:19.240Z,340
2016-08-21T08:39:19.950Z,335
2016-08-21T08:40:19.996Z,335
2016-08-21T08:41:19.242Z,330
2016-08-21T08:42:19.250Z,260
2016-08-21T08:43:19.262Z,280
2016-08-21T08:44:19.264Z,250
2016-08-21T08:45:20.021Z,355
2016-08-21T08:46:19.987Z,355
2016-08-21T08:47:19.293Z,345
2016-08-21T08:48:20.206Z,250
2016-08-21T08:49:19.301Z,335
2016-08-21T08:50:19.318Z,330
2016-08-21T08:51:19.310Z,320
2016-08-21T08:52:19.322Z,320
2016-08-21T08:53:20.053Z,325
2016-08-21T08:54:19.326Z,330
2016-08-21T08:55:19.340Z,270
2016-08-21T08:56:19.350Z,310
2016-08-21T08:57:19.347Z,305
2016-08-21T08:58:19.350Z,295
2016-08-21T08:59:19.408Z,285
2016-08-21T09:00:19.362Z,290
2016-08-21T09:01:19.375Z,295
2016-08-21T09:02:20.094Z,295
2016-08-21T09:03:19.380Z,315
2016-08-21T09:04:19.403Z,335
2016-08-21T09:05:19.399Z,350
2016-08-21T09:06:19.415Z,350
2016-08-21T09:07:19.610Z,370
2016-08-21T09:08:19.404Z,370
2016-08-21T09:09:19.411Z,290
2016-08-21T09:10:19.551Z,315
2016-08-21T09:11:19.420Z,250
2016-08-21T09:12:19.440Z,235
2016-08-21T09:13:20.135Z,240
2016-08-21T09:14:19.465Z,325
2016-08-21T09:15:19.436Z,335
2016-08-21T09:16:19.440Z,330
2016-08-21T09:17:19.439Z,345
2016-08-21T09:18:19.462Z,355
2016-08-21T09:19:19.468Z,345
2016-08-21T09:20:19.466Z,250
2016-08-21T09:21:19.466Z,310
2016-08-21T09:22:20.183Z,360
2016-08-21T09:23:19.488Z,325
2016-08-21T09:24:19.475Z,370
2016-08-21T09:25:19.487Z,380
2016-08-21T09:26:19.487Z,305
2016-08-21T09:27:19.495Z,315
2016-08-21T09:28:19.507Z,365
2016-08-21T09:29:19.508Z,315
2016-08-21T09:30:20.246Z,350
2016-08-21T09:31:19.516Z,285
2016-08-21T09:32:19.516Z,350
2016-08-21T09:33:19.761Z,315
2016-08-21T09:34:19.529Z,275
2016-08-21T09:35:19.532Z,270
2016-08-21T09:36:19.565Z,260
2016-08-21T09:37:19.538Z,255
2016-08-21T09:38:19.543Z,245
2016-08-21T09:39:20.276Z,245
2016-08-21T09:40:19.812Z,235
2016-08-21T09:41:19.570Z,230
2016-08-21T09:42:19.564Z,220
2016-08-21T09:43:19.568Z,210
2016-08-21T09:44:19.579Z,195
2016-08-21T09:45:21.004Z,180
2016-08-21T09:46:19.586Z,170
2016-08-21T09:47:19.581Z,180
2016-08-21T09:48:19.581Z,180
2016-08-21T09:49:19.588Z,175
2016-08-21T09:50:20.333Z,170
2016-08-21T09:51:19.616Z,170
2016-08-21T09:52:19.600Z,170
2016-08-21T09:53:19.598Z,165
2016-08-21T09:54:19.612Z,185
2016-08-21T09:55:19.602Z,170
2016-08-21T09:56:19.640Z,175
2016-08-21T09:57:19.655Z,185
2016-08-21T09:58:19.637Z,255
2016-08-21T09:59:19.778Z,200
2016-08-21T10:00:20.390Z,255
2016-08-21T10:01:19.643Z,255
2016-08-21T10:02:19.642Z,255
2016-08-21T10:03:19.641Z,250
2016-08-21T10:04:19.645Z,245
2016-08-21T10:05:19.651Z,240
2016-08-21T10:06:19.646Z,235
2016-08-21T10:07:19.651Z,230
2016-08-21T10:08:19.650Z,230
2016-08-21T10:09:20.391Z,230
2016-08-21T10:10:19.673Z,230
2016-08-21T10:11:19.669Z,230
2016-08-21T10:12:19.666Z,230
2016-08-21T10:13:19.674Z,230
2016-08-21T10:14:19.683Z,235
2016-08-21T10:15:20.425Z,235
2016-08-21T10:16:19.683Z,230
2016-08-21T10:17:20.413Z,175
2016-08-21T10:18:20.423Z,175
2016-08-21T10:19:21.132Z,240
2016-08-21T10:20:19.722Z,245
2016-08-21T10:21:19.711Z,245
2016-08-21T10:22:19.714Z,250
2016-08-21T10:23:19.714Z,250
2016-08-21T10:24:19.719Z,175
2016-08-21T10:25:20.461Z,180
2016-08-21T10:26:19.744Z,240
2016-08-21T10:27:19.723Z,225
2016-08-21T10:28:19.731Z,165
2016-08-21T10:29:19.733Z,170
2016-08-21T10:30:19.742Z,175
2016-08-21T10:31:19.747Z,180
2016-08-21T10:32:19.750Z,215
2016-08-21T10:33:19.777Z,185
2016-08-21T10:34:19.772Z,175
2016-08-21T10:35:20.521Z,175
2016-08-21T10:36:19.762Z,175
2016-08-21T10:37:19.758Z,220
2016-08-21T10:38:19.782Z,195
2016-08-21T10:39:20.487Z,215
2016-08-21T10:40:20.529Z,245
2016-08-21T10:41:19.782Z,255
2016-08-21T10:42:19.788Z,255
2016-08-21T10:43:19.809Z,245
2016-08-21T10:44:19.781Z,260
2016-08-21T10:45:19.793Z,255
2016-08-21T10:46:19.797Z,255
2016-08-21T10:47:20.530Z,255
2016-08-21T10:48:19.799Z,225
2016-08-21T10:49:19.812Z,255
2016-08-21T10:50:20.533Z,260
2016-08-21T10:51:19.822Z,265
2016-08-21T10:52:19.818Z,275
2016-08-21T10:53:20.537Z,275
2016-08-21T10:54:19.827Z,230
2016-08-21T10:55:20.543Z,235
2016-08-21T10:56:19.834Z,255
2016-08-21T10:57:19.846Z,300
2016-08-21T10:58:19.845Z,270
2016-08-21T10:59:20.594Z,275
2016-08-21T11:00:20.572Z,230
2016-08-21T11:01:19.844Z,220
2016-08-21T11:02:19.864Z,240
2016-08-21T11:03:19.851Z,215
2016-08-21T11:04:19.870Z,210
2016-08-21T11:05:19.876Z,215
2016-08-21T11:06:19.867Z,230
2016-08-21T11:07:19.878Z,250
2016-08-21T11:08:19.882Z,260
2016-08-21T11:09:19.888Z,280
2016-08-21T11:10:19.891Z,290
2016-08-21T11:11:20.619Z,305
2016-08-21T11:12:19.892Z,315
2016-08-21T11:13:19.898Z,310
2016-08-21T11:14:19.900Z,325
2016-08-21T11:15:20.630Z,330
2016-08-21T11:16:19.909Z,335
2016-08-21T11:17:19.922Z,360
2016-08-21T11:18:19.917Z,385
2016-08-21T11:19:19.920Z,365
2016-08-21T11:20:19.960Z,360
2016-08-21T11:21:19.931Z,350
2016-08-21T11:22:19.935Z,305
2016-08-21T11:23:19.938Z,290
2016-08-21T11:24:19.943Z,290
2016-08-21T11:25:19.955Z,270
2016-08-21T11:26:19.955Z,260
2016-08-21T11:27:19.962Z,245
2016-08-21T11:28:19.963Z,235
2016-08-21T11:29:19.959Z,220
2016-08-21T11:30:20.725Z,215
2016-08-21T11:31:19.974Z,220
2016-08-21T11:32:19.972Z,225
2016-08-21T11:33:20.005Z,250
2016-08-21T11:34:20.000Z,275
2016-08-21T11:35:20.003Z,270
2016-08-21T11:36:20.004Z,275
2016-08-21T11:37:20.005Z,270
2016-08-21T11:38:20.018Z,270
2016-08-21T11:39:20.717Z,265
2016-08-21T11:40:20.012Z,265
2016-08-21T11:41:20.030Z,260
2016-08-21T11:42:20.030Z,260
2016-08-21T11:43:20.024Z,265
2016-08-21T11:44:20.045Z,260
2016-08-21T11:45:20.033Z,255
2016-08-21T11:46:20.037Z,255
2016-08-21T11:47:20.042Z,255
2016-08-21T11:48:20.069Z,255
2016-08-21T11:49:20.774Z,260
2016-08-21T11:50:20.098Z,275
2016-08-21T11:51:20.070Z,255
2016-08-21T11:52:20.069Z,285
2016-08-21T11:53:20.081Z,300
2016-08-21T11:54:20.073Z,310
2016-08-21T11:55:20.072Z,315
2016-08-21T11:56:20.078Z,315
2016-08-21T11:57:20.102Z,315
2016-08-21T11:58:20.099Z,305
2016-08-21T11:59:20.146Z,300
2016-08-21T12:00:20.849Z,310
2016-08-21T12:01:20.097Z,285
2016-08-21T12:02:20.107Z,275
2016-08-21T12:03:20.122Z,275
2016-08-21T12:04:20.118Z,330
2016-08-21T12:05:20.115Z,340
2016-08-21T12:06:20.121Z,350
2016-08-21T12:07:20.127Z,345
2016-08-21T12:08:20.119Z,335
2016-08-21T12:09:20.131Z,315
2016-08-21T12:10:20.875Z,300
2016-08-21T12:11:20.362Z,275
2016-08-21T12:12:20.154Z,270
2016-08-21T12:13:20.140Z,255
2016-08-21T12:14:20.868Z,245
2016-08-21T12:15:20.214Z,245
2016-08-21T12:16:20.166Z,250
2016-08-21T12:17:20.181Z,255
2016-08-21T12:18:20.169Z,260
2016-08-21T12:19:20.905Z,270
2016-08-21T12:20:20.933Z,285
2016-08-21T12:21:20.182Z,285
2016-08-21T12:22:20.190Z,280
2016-08-21T12:23:20.201Z,280
2016-08-21T12:24:20.199Z,285
2016-08-21T12:25:20.215Z,285
2016-08-21T12:26:20.205Z,290
2016-08-21T12:27:20.217Z,285
2016-08-21T12:28:20.915Z,290
2016-08-21T12:29:20.252Z,305
2016-08-21T12:30:20.221Z,295
2016-08-21T12:31:20.222Z,255
2016-08-21T12:32:20.235Z,300
2016-08-21T12:33:20.400Z,305
2016-08-21T12:34:20.960Z,275
2016-08-21T12:35:20.948Z,260
2016-08-21T12:36:20.248Z,255
2016-08-21T12:37:20.265Z,245
2016-08-21T12:38:20.981Z,225
2016-08-21T12:39:20.568Z,220
2016-08-21T12:40:21.011Z,260
2016-08-21T12:41:20.279Z,260
2016-08-21T12:42:20.308Z,260
2016-08-21T12:43:21.005Z,270
2016-08-21T12:44:20.282Z,270
2016-08-21T12:45:20.310Z,280
2016-08-21T12:46:20.317Z,280
2016-08-21T12:47:20.322Z,295
2016-08-21T12:48:20.321Z,300
2016-08-21T12:49:20.329Z,280
2016-08-21T12:50:20.361Z,265
2016-08-21T12:51:20.320Z,275
2016-08-21T12:52:20.346Z,275
2016-08-21T12:53:20.346Z,290
2016-08-21T12:54:20.329Z,290
2016-08-21T12:55:20.363Z,295
2016-08-21T12:56:20.379Z,290
2016-08-21T12:57:20.365Z,290
2016-08-21T12:58:20.369Z,290
2016-08-21T12:59:20.424Z,295
2016-08-21T13:00:20.388Z,260
2016-08-21T13:01:20.367Z,285
2016-08-21T13:02:20.385Z,245
2016-08-21T13:03:21.090Z,230
2016-08-21T13:04:20.390Z,225
2016-08-21T13:05:20.428Z,215
2016-08-21T13:06:20.401Z,200
2016-08-21T13:07:20.406Z,185
2016-08-21T13:08:21.114Z,190
2016-08-21T13:09:20.400Z,180
2016-08-21T13:10:20.419Z,175
2016-08-21T13:11:20.431Z,160
2016-08-21T13:12:20.419Z,155
2016-08-21T13:13:20.430Z,150
2016-08-21T13:14:20.458Z,155
2016-08-21T13:15:20.496Z,175
2016-08-21T13:16:21.134Z,175
2016-08-21T13:17:20.441Z,160
2016-08-21T13:18:21.139Z,160
2016-08-21T13:19:20.483Z,165
2016-08-21T13:20:20.472Z,160
2016-08-21T13:21:20.469Z,165
2016-08-21T13:22:20.470Z,190
2016-08-21T13:23:20.466Z,180
2016-08-21T13:24:20.516Z,210
2016-08-21T13:25:20.498Z,190
2016-08-21T13:26:20.484Z,190
2016-08-21T13:27:20.500Z,205
2016-08-21T13:28:20.504Z,195
2016-08-21T13:29:20.494Z,200
2016-08-21T13:30:20.500Z,180
2016-08-21T13:31:20.498Z,190
2016-08-21T13:32:20.521Z,185
2016-08-21T13:33:20.800Z,185
2016-08-21T13:34:20.525Z,185
2016-08-21T13:35:20.529Z,185
2016-08-21T13:36:21.222Z,185
2016-08-21T13:37:20.512Z,185
2016-08-21T13:38:20.525Z,185
2016-08-21T13:39:20.535Z,185
2016-08-21T13:40:20.523Z,185
2016-08-21T13:41:20.552Z,185
2016-08-21T13:42:20.578Z,185
2016-08-21T13:43:20.524Z,185
2016-08-21T13:44:20.561Z,185
2016-08-21T13:45:20.558Z,190
2016-08-21T13:46:20.570Z,190
2016-08-21T13:47:20.556Z,190
2016-08-21T13:48:20.563Z,190
2016-08-21T13:49:20.581Z,190
2016-08-21T13:50:20.569Z,190
2016-08-21T13:51:20.579Z,190
2016-08-21T13:52:20.583Z,190
2016-08-21T13:53:21.281Z,190
2016-08-21T13:54:20.619Z,190
2016-08-21T13:55:20.590Z,195
2016-08-21T13:56:20.598Z,205
2016-08-21T13:57:20.601Z,215
2016-08-21T13:58:20.594Z,220
2016-08-21T13:59:20.666Z,225
2016-08-21T14:00:20.633Z,230
2016-08-21T14:01:20.632Z,245
2016-08-21T14:02:20.620Z,260
2016-08-21T14:03:20.625Z,250
2016-08-21T14:04:20.627Z,260
2016-08-21T14:05:20.639Z,230